createdAt,value
2022-09-28T00:01:27.546Z,2.08
2022-09-28T00:03:58.228Z,1.63
2022-09-28T00:06:26.874Z,1.52
2022-09-28T00:08:54.081Z,1.50
2022-09-28T00:11:22.658Z,1.77
2022-09-28T00:13:51.712Z,1.40
2022-09-28T00:16:21.780Z,1.20
2022-09-28T00:18:51.116Z,1.70
2022-09-28T00:21:23.719Z,0.93
2022-09-28T00:24:14.881Z,1.35
2022-09-28T00:26:54.143Z,2.05
2022-09-28T00:29:39.225Z,1.20
2022-09-28T00:32:11.650Z,1.17
2022-09-28T00:34:42.433Z,1.67
2022-09-28T00:37:10.156Z,1.60
2022-09-28T00:39:38.728Z,1.95
2022-09-28T00:42:16.466Z,1.13
2022-09-28T00:44:48.970Z,1.65
2022-09-28T00:47:34.442Z,1.33
2022-09-28T00:50:24.748Z,1.42
2022-09-28T00:53:01.199Z,1.67
2022-09-28T00:55:37.959Z,1.50
2022-09-28T00:58:08.550Z,1.05
2022-09-28T01:00:35.667Z,1.08
2022-09-28T01:03:04.081Z,0.88
2022-09-28T01:05:30.913Z,0.98
2022-09-28T01:07:58.326Z,0.88
2022-09-28T01:10:25.420Z,1.13
2022-09-28T01:12:52.201Z,0.80
2022-09-28T01:15:21.836Z,1.10
2022-09-28T01:17:51.688Z,0.50
2022-09-28T01:20:27.319Z,0.82
2022-09-28T01:23:24.376Z,0.80
2022-09-28T01:26:03.437Z,1.00
2022-09-28T01:28:31.537Z,0.80
2022-09-28T01:31:12.578Z,0.73
2022-09-28T01:33:47.436Z,0.70
2022-09-28T01:36:28.093Z,0.90
2022-09-28T01:39:24.477Z,0.80
2022-09-28T01:41:54.085Z,1.15
2022-09-28T01:44:24.335Z,1.00
2022-09-28T01:46:52.416Z,0.90
2022-09-28T01:49:34.247Z,0.73
2022-09-28T01:52:15.361Z,0.70
2022-09-28T01:54:47.605Z,1.02
2022-09-28T01:57:32.383Z,1.13
2022-09-28T02:00:13.235Z,0.95
2022-09-28T02:02:48.345Z,0.95
2022-09-28T02:05:23.498Z,0.68
2022-09-28T02:08:29.011Z,1.20
2022-09-28T02:11:15.821Z,1.02
2022-09-28T02:14:04.321Z,0.95
2022-09-28T02:16:41.242Z,1.00
2022-09-28T02:19:15.098Z,0.82
2022-09-28T02:21:53.404Z,1.00
2022-09-28T02:24:28.847Z,0.90
2022-09-28T02:27:00.238Z,1.00
2022-09-28T02:29:27.000Z,0.93
2022-09-28T02:31:53.807Z,1.20
2022-09-28T02:34:20.687Z,1.88
2022-09-28T02:36:47.673Z,0.93
2022-09-28T02:39:17.766Z,0.77
2022-09-28T02:41:50.428Z,0.70
2022-09-28T02:44:49.448Z,1.38
2022-09-28T02:47:24.749Z,0.95
2022-09-28T02:50:04.007Z,0.80
2022-09-28T02:52:50.989Z,0.77
2022-09-28T02:55:42.581Z,0.80
2022-09-28T02:58:20.234Z,1.00
2022-09-28T03:01:05.273Z,0.98
2022-09-28T03:04:01.157Z,1.05
2022-09-28T03:06:37.607Z,0.95
2022-09-28T03:09:23.051Z,1.23
2022-09-28T03:11:55.013Z,1.10
2022-09-28T03:14:22.625Z,1.35
2022-09-28T03:16:49.374Z,1.23
2022-09-28T03:19:23.506Z,0.93
2022-09-28T03:21:50.287Z,0.93
2022-09-28T03:24:17.008Z,1.27
2022-09-28T03:26:43.765Z,1.00
2022-09-28T03:29:10.561Z,1.17
2022-09-28T03:31:37.995Z,1.25
2022-09-28T03:34:04.903Z,1.20
2022-09-28T03:36:31.720Z,1.48
2022-09-28T03:38:59.609Z,1.08
2022-09-28T03:41:29.497Z,1.27
2022-09-28T03:43:56.291Z,1.60
2022-09-28T03:46:23.037Z,1.20
2022-09-28T03:48:49.796Z,1.25
2022-09-28T03:51:16.603Z,1.27
2022-09-28T03:53:43.401Z,1.35
2022-09-28T03:56:15.542Z,1.40
2022-09-28T03:58:42.500Z,1.60
2022-09-28T04:01:18.424Z,1.45
2022-09-28T04:03:45.788Z,1.73
2022-09-28T04:06:12.946Z,2.22
2022-09-28T04:08:39.811Z,2.30
2022-09-28T04:11:06.636Z,1.92
2022-09-28T04:13:33.474Z,1.70
2022-09-28T04:16:01.893Z,1.80
2022-09-28T04:18:29.321Z,1.55
2022-09-28T04:21:04.713Z,1.42
2022-09-28T04:23:31.526Z,1.60
2022-09-28T04:25:58.518Z,1.75
2022-09-28T04:28:44.463Z,1.83
2022-09-28T04:31:17.252Z,1.70
2022-09-28T04:33:44.390Z,1.90
2022-09-28T04:36:11.335Z,1.92
2022-09-28T04:38:52.253Z,1.90
2022-09-28T04:41:22.236Z,2.00
2022-09-28T04:43:49.687Z,2.08
2022-09-28T04:46:16.470Z,2.00
2022-09-28T04:48:43.359Z,2.88
2022-09-28T04:51:10.159Z,1.60
2022-09-28T04:53:37.048Z,1.80
2022-09-28T04:56:10.741Z,2.08
2022-09-28T04:58:38.525Z,1.75
2022-09-28T05:01:07.870Z,2.00
2022-09-28T05:03:34.830Z,2.15
2022-09-28T05:06:01.817Z,2.10
2022-09-28T05:08:29.336Z,2.45
2022-09-28T05:11:01.209Z,2.03
2022-09-28T05:13:28.964Z,2.10
2022-09-28T05:15:58.932Z,2.20
2022-09-28T05:18:28.618Z,2.50
2022-09-28T05:20:55.356Z,2.30
2022-09-28T05:23:22.142Z,2.15
2022-09-28T05:25:48.963Z,2.58
2022-09-28T05:28:24.091Z,2.72
2022-09-28T05:30:51.038Z,2.90
2022-09-28T05:33:17.785Z,2.63
2022-09-28T05:35:44.604Z,3.58
2022-09-28T05:38:11.369Z,3.17
2022-09-28T05:40:38.124Z,3.15
2022-09-28T05:43:04.948Z,3.75
2022-09-28T05:45:31.836Z,3.55
2022-09-28T05:47:58.736Z,3.97
2022-09-28T05:50:25.684Z,4.80
2022-09-28T05:53:03.563Z,3.97
2022-09-28T05:55:30.983Z,4.88
2022-09-28T05:57:59.498Z,4.40
2022-09-28T06:00:27.942Z,4.60
2022-09-28T06:03:00.007Z,4.70
2022-09-28T06:05:28.703Z,4.30
2022-09-28T06:07:57.745Z,4.15
2022-09-28T06:10:26.806Z,4.22
2022-09-28T06:12:57.145Z,4.20
2022-09-28T06:15:26.429Z,3.90
2022-09-28T06:18:19.592Z,4.00
2022-09-28T06:20:46.432Z,4.53
2022-09-28T06:23:13.628Z,4.57
2022-09-28T06:25:40.828Z,3.80
2022-09-28T06:28:11.031Z,4.07
2022-09-28T06:30:39.213Z,4.22
2022-09-28T06:33:08.347Z,4.25
2022-09-28T06:35:35.520Z,3.67
2022-09-28T06:38:02.643Z,3.75
2022-09-28T06:40:29.646Z,3.80
2022-09-28T06:43:01.786Z,4.18
2022-09-28T06:45:30.173Z,3.80
2022-09-28T06:48:01.305Z,4.05
2022-09-28T06:50:33.390Z,4.32
2022-09-28T06:53:01.553Z,3.87
2022-09-28T06:55:29.295Z,3.72
2022-09-28T06:58:07.232Z,3.97
2022-09-28T07:00:36.769Z,3.75
2022-09-28T07:03:06.577Z,3.80
2022-09-28T07:05:36.849Z,3.25
2022-09-28T07:08:04.931Z,3.35
2022-09-28T07:10:32.462Z,3.00
2022-09-28T07:13:02.838Z,3.45
2022-09-28T07:15:30.635Z,3.28
2022-09-28T07:18:03.718Z,2.80
2022-09-28T07:20:44.981Z,2.80
2022-09-28T07:23:19.834Z,2.80
2022-09-28T07:25:50.220Z,2.38
2022-09-28T07:28:21.122Z,2.63
2022-09-28T07:30:48.348Z,2.47
2022-09-28T07:33:17.172Z,2.60
2022-09-28T07:35:55.255Z,2.53
2022-09-28T07:38:22.218Z,2.80
2022-09-28T07:41:07.576Z,2.60
2022-09-28T07:43:34.364Z,2.55
2022-09-28T07:46:01.237Z,2.13
2022-09-28T07:48:28.061Z,2.30
2022-09-28T07:50:57.348Z,2.28
2022-09-28T07:53:25.528Z,2.25
2022-09-28T07:56:02.115Z,2.40
2022-09-28T07:58:29.381Z,2.15
2022-09-28T08:00:56.242Z,2.80
2022-09-28T08:03:23.058Z,2.30
2022-09-28T08:05:49.928Z,2.35
2022-09-28T08:08:16.911Z,1.90
2022-09-28T08:10:46.786Z,2.45
2022-09-28T08:13:15.290Z,2.25
2022-09-28T08:15:42.571Z,2.50
2022-09-28T08:18:09.541Z,2.00
2022-09-28T08:20:55.003Z,1.95
2022-09-28T08:23:23.267Z,2.13
2022-09-28T08:25:54.101Z,2.35
2022-09-28T08:28:22.677Z,1.65
2022-09-28T08:30:50.180Z,1.88
2022-09-28T08:33:20.305Z,2.10
2022-09-28T08:35:47.504Z,1.60
2022-09-28T08:38:15.320Z,1.17
2022-09-28T08:41:06.150Z,1.90
2022-09-28T08:43:42.100Z,1.40
2022-09-28T08:46:11.097Z,1.20
2022-09-28T08:49:13.540Z,1.20
2022-09-28T08:52:01.504Z,1.05
2022-09-28T08:54:46.416Z,1.20
2022-09-28T08:57:19.028Z,1.52
2022-09-28T08:59:54.745Z,1.60
2022-09-28T09:02:36.209Z,1.13
2022-09-28T09:05:06.287Z,1.20
2022-09-28T09:07:58.772Z,1.20
2022-09-28T09:10:46.784Z,0.90
2022-09-28T09:13:38.000Z,1.08
2022-09-28T09:16:26.518Z,0.57
2022-09-28T09:19:26.323Z,0.70
2022-09-28T09:22:02.006Z,0.70
2022-09-28T09:24:48.712Z,0.80
2022-09-28T09:27:46.489Z,1.48
2022-09-28T09:30:18.990Z,0.80
2022-09-28T09:33:11.010Z,1.08
2022-09-28T09:36:13.216Z,1.10
2022-09-28T09:38:52.612Z,1.00
2022-09-28T09:41:43.711Z,1.00
2022-09-28T09:44:13.247Z,0.93
2022-09-28T09:46:43.193Z,0.80
2022-09-28T09:49:44.953Z,0.60
2022-09-28T09:52:18.873Z,0.70
2022-09-28T09:54:55.485Z,0.70
2022-09-28T09:57:25.601Z,0.80
2022-09-28T09:59:52.633Z,0.77
2022-09-28T10:02:35.388Z,0.70
2022-09-28T10:05:07.667Z,0.73
2022-09-28T10:07:50.744Z,0.60
2022-09-28T10:10:28.419Z,0.80
2022-09-28T10:12:55.601Z,0.52
2022-09-28T10:15:28.085Z,0.50
2022-09-28T10:17:56.961Z,0.90
2022-09-28T10:20:25.621Z,1.15
2022-09-28T10:22:56.192Z,0.63
2022-09-28T10:25:23.882Z,0.50
2022-09-28T10:27:52.703Z,0.65
2022-09-28T10:30:25.779Z,0.50
2022-09-28T10:35:28.097Z,0.50
2022-09-28T10:38:03.321Z,0.50
2022-09-28T10:40:44.744Z,0.55
2022-09-28T10:43:33.754Z,0.70
2022-09-28T10:46:07.226Z,0.90
2022-09-28T10:48:46.007Z,0.70
2022-09-28T10:51:12.766Z,1.00
2022-09-28T10:53:39.949Z,0.50
2022-09-28T10:56:19.148Z,0.80
2022-09-28T10:58:45.959Z,0.93
2022-09-28T11:01:19.120Z,0.80
2022-09-28T11:03:52.683Z,0.70
2022-09-28T11:06:31.605Z,0.70
2022-09-28T11:09:01.713Z,1.00
2022-09-28T11:11:29.680Z,0.82
2022-09-28T11:14:01.121Z,0.77
2022-09-28T11:16:33.991Z,0.77
2022-09-28T11:19:27.519Z,0.70
2022-09-28T11:24:24.510Z,1.00
2022-09-28T11:26:56.570Z,0.80
2022-09-28T11:29:32.480Z,0.90
2022-09-28T11:32:01.573Z,1.83
2022-09-28T11:34:58.667Z,0.80
2022-09-28T11:37:37.494Z,0.90
2022-09-28T11:40:16.636Z,0.50
2022-09-28T11:43:03.735Z,0.70
2022-09-28T11:45:57.904Z,0.70
2022-09-28T11:48:32.930Z,0.50
2022-09-28T11:51:08.418Z,0.77
2022-09-28T11:53:43.026Z,0.90
2022-09-28T11:56:34.117Z,1.15
2022-09-28T11:59:17.079Z,0.70
2022-09-28T12:01:47.091Z,0.70
2022-09-28T12:04:25.694Z,0.80
2022-09-28T12:06:59.590Z,0.90
2022-09-28T12:09:38.257Z,1.00
2022-09-28T12:12:21.632Z,0.80
2022-09-28T12:14:50.494Z,1.30
2022-09-28T12:17:30.775Z,0.77
2022-09-28T12:20:03.835Z,1.15
2022-09-28T12:25:01.939Z,0.90
2022-09-28T12:27:36.317Z,1.00
2022-09-28T12:30:05.301Z,1.00
2022-09-28T12:32:53.009Z,0.80
2022-09-28T12:36:07.803Z,0.88
2022-09-28T12:38:54.090Z,1.00
2022-09-28T12:42:01.558Z,1.38
2022-09-28T12:44:59.384Z,1.20
2022-09-28T12:47:47.410Z,1.30
2022-09-28T12:50:38.022Z,1.38
2022-09-28T12:53:27.308Z,1.00
2022-09-28T12:56:02.207Z,1.38
2022-09-28T12:59:04.029Z,1.35
2022-09-28T13:01:44.785Z,0.90
2022-09-28T13:04:38.328Z,1.05
2022-09-28T13:09:47.613Z,1.17
2022-09-28T13:12:32.632Z,1.20
2022-09-28T13:15:17.696Z,1.30
2022-09-28T13:17:47.403Z,1.13
2022-09-28T13:20:20.134Z,1.00
2022-09-28T13:23:17.593Z,1.40
2022-09-28T13:26:13.924Z,1.60
2022-09-28T13:28:43.337Z,1.48
2022-09-28T13:31:11.228Z,1.45
2022-09-28T13:33:44.575Z,1.55
2022-09-28T13:36:26.569Z,1.52
2022-09-28T13:38:54.751Z,1.02
2022-09-28T13:41:29.801Z,1.30
2022-09-28T13:44:20.276Z,1.60
2022-09-28T13:47:05.605Z,1.30
2022-09-28T13:49:45.577Z,1.58
2022-09-28T13:52:44.281Z,2.08
2022-09-28T13:55:32.994Z,1.48
2022-09-28T13:58:05.624Z,1.73
2022-09-28T14:00:53.258Z,1.60
2022-09-28T14:03:38.650Z,1.20
2022-09-28T14:06:25.385Z,1.52
2022-09-28T14:09:13.963Z,1.15
2022-09-28T14:11:56.254Z,1.23
2022-09-28T14:14:33.177Z,1.60
2022-09-28T14:17:19.065Z,1.77
2022-09-28T14:19:51.933Z,1.23
2022-09-28T14:22:26.138Z,1.40
2022-09-28T14:25:04.859Z,1.35
2022-09-28T14:28:05.413Z,1.35
2022-09-28T14:30:38.287Z,1.48
2022-09-28T14:33:27.313Z,1.60
2022-09-28T14:36:08.554Z,1.33
2022-09-28T14:39:03.271Z,1.60
2022-09-28T14:41:34.844Z,1.35
2022-09-28T14:44:02.590Z,2.05
2022-09-28T14:46:38.069Z,1.80
2022-09-28T14:49:20.175Z,1.83
2022-09-28T14:51:53.021Z,1.30
2022-09-28T14:54:22.159Z,1.67
2022-09-28T14:56:57.502Z,1.58
2022-09-28T14:59:26.856Z,2.85
2022-09-28T15:02:01.299Z,1.80
2022-09-28T15:04:30.702Z,1.55
2022-09-28T15:06:58.116Z,1.58
2022-09-28T15:09:39.185Z,1.80
2022-09-28T15:12:20.331Z,2.13
2022-09-28T15:15:02.345Z,2.20
2022-09-28T15:17:30.720Z,2.42
2022-09-28T15:20:08.724Z,2.63
2022-09-28T15:22:36.814Z,2.47
2022-09-28T15:25:13.651Z,2.35
2022-09-28T15:27:41.407Z,2.17
2022-09-28T15:30:25.482Z,3.00
2022-09-28T15:32:56.633Z,2.80
2022-09-28T15:35:27.656Z,2.70
2022-09-28T15:37:55.533Z,2.95
2022-09-28T15:40:35.173Z,2.45
2022-09-28T15:43:19.781Z,2.63
2022-09-28T15:46:04.337Z,2.33
2022-09-28T15:48:56.618Z,1.73
2022-09-28T15:51:24.568Z,1.90
2022-09-28T15:53:58.327Z,2.28
2022-09-28T15:56:26.709Z,1.60
2022-09-28T15:59:12.938Z,2.28
2022-09-28T16:01:45.925Z,2.10
2022-09-28T16:07:10.631Z,1.50
2022-09-28T16:10:12.803Z,1.92
2022-09-28T16:12:42.668Z,2.20
2022-09-28T16:15:20.377Z,1.90
2022-09-28T16:18:18.999Z,1.83
2022-09-28T16:20:50.125Z,1.33
2022-09-28T16:23:16.851Z,1.20
2022-09-28T16:26:05.314Z,0.80
2022-09-28T16:28:37.618Z,0.90
2022-09-28T16:31:27.225Z,0.80
2022-09-28T16:34:01.269Z,1.00
2022-09-28T16:36:38.992Z,0.93
2022-09-28T16:39:05.751Z,1.10
2022-09-28T16:41:32.488Z,1.00
2022-09-28T16:44:02.173Z,1.23
2022-09-28T16:46:36.366Z,1.27
2022-09-28T16:49:05.924Z,1.40
2022-09-28T16:51:33.584Z,1.33
2022-09-28T16:54:33.970Z,1.38
2022-09-28T16:57:01.649Z,1.50
2022-09-28T16:59:29.053Z,1.90
2022-09-28T17:01:58.973Z,1.83
2022-09-28T17:04:26.651Z,1.63
2022-09-28T17:06:55.278Z,1.70
2022-09-28T17:09:22.539Z,1.75
2022-09-28T17:11:56.057Z,1.42
2022-09-28T17:14:23.979Z,2.13
2022-09-28T17:17:12.657Z,2.35
2022-09-28T17:19:41.155Z,2.40
2022-09-28T17:22:09.315Z,2.30
2022-09-28T17:24:36.377Z,2.00
2022-09-28T17:27:03.612Z,1.92
2022-09-28T17:29:30.701Z,2.00
2022-09-28T17:31:57.493Z,2.00
2022-09-28T17:34:24.260Z,2.50
2022-09-28T17:36:52.182Z,2.00
2022-09-28T17:39:19.354Z,2.95
2022-09-28T17:41:46.667Z,2.15
2022-09-28T17:44:15.875Z,2.55
2022-09-28T17:46:49.232Z,2.08
2022-09-28T17:49:16.928Z,2.35
2022-09-28T17:51:43.793Z,2.35
2022-09-28T17:54:10.880Z,1.98
2022-09-28T17:56:37.799Z,2.67
2022-09-28T17:59:12.540Z,2.67
2022-09-28T18:01:40.193Z,3.50
2022-09-28T18:04:09.044Z,2.70
2022-09-28T18:06:37.281Z,2.05
2022-09-28T18:09:05.721Z,2.20
2022-09-28T18:11:33.912Z,2.20
2022-09-28T18:14:01.084Z,2.17
2022-09-28T18:16:28.955Z,3.80
2022-09-28T18:18:56.227Z,2.20
2022-09-28T18:21:23.118Z,2.78
2022-09-28T18:23:50.014Z,2.20
2022-09-28T18:26:19.644Z,2.30
2022-09-28T18:28:47.095Z,2.28
2022-09-28T18:31:15.748Z,10.98
2022-09-28T18:33:43.399Z,9.65
2022-09-28T18:36:10.735Z,9.13
2022-09-28T18:38:38.371Z,7.35
2022-09-28T18:41:16.667Z,9.55
2022-09-28T18:43:49.223Z,28.35
2022-09-28T18:46:18.319Z,34.83
2022-09-28T18:48:47.263Z,21.98
2022-09-28T18:51:14.277Z,20.30
2022-09-28T18:53:41.277Z,15.10
2022-09-28T18:56:14.735Z,7.70
2022-09-28T18:58:42.685Z,7.68
2022-09-28T19:04:03.888Z,14.15
2022-09-28T19:06:31.802Z,12.18
2022-09-28T19:08:59.300Z,14.55
2022-09-28T19:11:26.807Z,14.80
2022-09-28T19:13:54.756Z,7.05
2022-09-28T19:16:30.030Z,9.85
2022-09-28T19:19:03.070Z,12.50
2022-09-28T19:23:56.789Z,21.48
2022-09-28T19:26:27.531Z,21.50
2022-09-28T19:28:56.397Z,8.10
2022-09-28T19:31:24.257Z,5.75
2022-09-28T19:33:51.046Z,3.90
2022-09-28T19:36:23.664Z,3.90
2022-09-28T19:38:51.819Z,4.35
2022-09-28T19:41:44.190Z,4.00
2022-09-28T19:44:27.500Z,4.30
2022-09-28T19:47:06.928Z,6.15
2022-09-28T19:49:38.165Z,10.88
2022-09-28T19:52:16.542Z,6.78
2022-09-28T19:54:56.759Z,5.85
2022-09-28T19:57:25.940Z,6.28
2022-09-28T19:59:55.800Z,4.63
2022-09-28T20:02:24.886Z,3.20
2022-09-28T20:04:51.653Z,3.20
2022-09-28T20:07:18.871Z,3.00
2022-09-28T20:09:45.627Z,4.57
2022-09-28T20:12:12.462Z,3.17
2022-09-28T20:14:40.464Z,2.70
2022-09-28T20:17:07.728Z,3.10
2022-09-28T20:19:35.033Z,3.28
2022-09-28T20:22:03.279Z,3.17
2022-09-28T20:24:31.303Z,3.72
2022-09-28T20:26:58.337Z,3.97
2022-09-28T20:29:25.293Z,3.50
2022-09-28T20:31:52.247Z,3.45
2022-09-28T20:34:19.391Z,3.58
2022-09-28T20:36:46.418Z,4.05
2022-09-28T20:39:13.542Z,3.58
2022-09-28T20:41:41.134Z,4.38
2022-09-28T20:44:08.129Z,3.90
2022-09-28T20:46:35.892Z,3.75
2022-09-28T20:49:03.266Z,4.15
2022-09-28T20:51:30.198Z,3.38
2022-09-28T20:53:58.262Z,3.88
2022-09-28T20:56:31.077Z,3.67
2022-09-28T20:58:57.844Z,3.60
2022-09-28T21:01:30.280Z,3.58
2022-09-28T21:04:01.930Z,3.67
2022-09-28T21:06:39.578Z,4.10
2022-09-28T21:09:07.987Z,3.83
2022-09-28T21:11:35.712Z,3.42
2022-09-28T21:14:04.529Z,3.55
2022-09-28T21:16:33.631Z,3.55
2022-09-28T21:19:00.528Z,3.40
2022-09-28T21:21:27.538Z,3.97
2022-09-28T21:23:58.401Z,3.00
2022-09-28T21:26:27.233Z,3.42
2022-09-28T21:29:06.279Z,3.28
2022-09-28T21:31:47.516Z,3.20
2022-09-28T21:34:21.446Z,3.38
